sensor_id;sensor_type;location;lat;lon;timestamp;temperature;humidity
5459;DHT22;2752;49.992;8.422;2023-05-10T00:01:40;14.20;90.60
5459;DHT22;2752;49.992;8.422;2023-05-10T00:04:06;14.10;91.30
5459;DHT22;2752;49.992;8.422;2023-05-10T00:06:33;14.10;91.30
5459;DHT22;2752;49.992;8.422;2023-05-10T00:09:01;13.90;91.70
5459;DHT22;2752;49.992;8.422;2023-05-10T00:11:28;14.10;92.80
5459;DHT22;2752;49.992;8.422;2023-05-10T00:13:55;14.10;92.80
5459;DHT22;2752;49.992;8.422;2023-05-10T00:16:22;14.10;92.50
5459;DHT22;2752;49.992;8.422;2023-05-10T00:18:48;14.00;94.50
5459;DHT22;2752;49.992;8.422;2023-05-10T00:21:15;14.10;93.90
5459;DHT22;2752;49.992;8.422;2023-05-10T00:23:41;14.10;94.50
5459;DHT22;2752;49.992;8.422;2023-05-10T00:26:09;14.00;93.30
5459;DHT22;2752;49.992;8.422;2023-05-10T00:28:36;14.00;94.50
5459;DHT22;2752;49.992;8.422;2023-05-10T00:31:03;14.00;94.50
5459;DHT22;2752;49.992;8.422;2023-05-10T00:33:30;14.00;94.50
5459;DHT22;2752;49.992;8.422;2023-05-10T00:35:56;14.00;94.50
5459;DHT22;2752;49.992;8.422;2023-05-10T00:38:23;14.00;94.50
5459;DHT22;2752;49.992;8.422;2023-05-10T00:40:50;13.90;95.70
5459;DHT22;2752;49.992;8.422;2023-05-10T00:43:18;13.80;96.60
5459;DHT22;2752;49.992;8.422;2023-05-10T00:45:44;13.80;98.20
5459;DHT22;2752;49.992;8.422;2023-05-10T00:48:11;13.70;99.30
5459;DHT22;2752;49.992;8.422;2023-05-10T00:50:38;13.70;99.90
5459;DHT22;2752;49.992;8.422;2023-05-10T00:53:06;13.70;99.90
5459;DHT22;2752;49.992;8.422;2023-05-10T00:55:32;13.70;99.90
5459;DHT22;2752;49.992;8.422;2023-05-10T00:57:59;13.70;99.70
5459;DHT22;2752;49.992;8.422;2023-05-10T01:00:28;13.70;99.90
5459;DHT22;2752;49.992;8.422;2023-05-10T01:02:55;13.70;99.90
5459;DHT22;2752;49.992;8.422;2023-05-10T01:05:21;13.70;99.90
5459;DHT22;2752;49.992;8.422;2023-05-10T01:07:48;13.70;99.60
5459;DHT22;2752;49.992;8.422;2023-05-10T01:10:15;13.70;97.80
5459;DHT22;2752;49.992;8.422;2023-05-10T01:12:43;13.70;97.80
5459;DHT22;2752;49.992;8.422;2023-05-10T01:15:11;13.70;97.80
5459;DHT22;2752;49.992;8.422;2023-05-10T01:17:42;13.60;98.80
5459;DHT22;2752;49.992;8.422;2023-05-10T01:20:10;13.60;99.90
5459;DHT22;2752;49.992;8.422;2023-05-10T01:26:04;13.70;99.30
5459;DHT22;2752;49.992;8.422;2023-05-10T01:28:54;13.70;97.40
5459;DHT22;2752;49.992;8.422;2023-05-10T01:31:50;13.70;97.30
5459;DHT22;2752;49.992;8.422;2023-05-10T01:34:23;13.70;96.30
5459;DHT22;2752;49.992;8.422;2023-05-10T01:36:56;13.70;96.80
5459;DHT22;2752;49.992;8.422;2023-05-10T01:39:28;13.70;97.90
5459;DHT22;2752;49.992;8.422;2023-05-10T01:42:01;13.70;98.40
5459;DHT22;2752;49.992;8.422;2023-05-10T01:44:35;13.60;98.00
5459;DHT22;2752;49.992;8.422;2023-05-10T01:47:09;13.60;97.70
5459;DHT22;2752;49.992;8.422;2023-05-10T01:49:39;13.60;99.00
5459;DHT22;2752;49.992;8.422;2023-05-10T01:52:10;13.60;99.10
5459;DHT22;2752;49.992;8.422;2023-05-10T01:54:39;13.50;99.90
5459;DHT22;2752;49.992;8.422;2023-05-10T01:57:09;13.50;99.90
5459;DHT22;2752;49.992;8.422;2023-05-10T01:59:38;13.50;99.90
5459;DHT22;2752;49.992;8.422;2023-05-10T02:02:08;13.50;99.90
5459;DHT22;2752;49.992;8.422;2023-05-10T02:04:37;13.50;99.90
5459;DHT22;2752;49.992;8.422;2023-05-10T02:07:05;13.50;99.90
5459;DHT22;2752;49.992;8.422;2023-05-10T02:09:33;13.40;99.90
5459;DHT22;2752;49.992;8.422;2023-05-10T02:12:02;13.40;99.90
5459;DHT22;2752;49.992;8.422;2023-05-10T02:14:33;13.50;99.90
5459;DHT22;2752;49.992;8.422;2023-05-10T02:17:02;13.40;99.90
5459;DHT22;2752;49.992;8.422;2023-05-10T02:19:30;13.40;99.90
5459;DHT22;2752;49.992;8.422;2023-05-10T02:21:59;13.40;99.90
5459;DHT22;2752;49.992;8.422;2023-05-10T02:24:27;13.40;99.90
5459;DHT22;2752;49.992;8.422;2023-05-10T02:26:55;13.40;99.90
5459;DHT22;2752;49.992;8.422;2023-05-10T02:29:23;13.40;99.90
5459;DHT22;2752;49.992;8.422;2023-05-10T02:31:53;13.40;99.90
5459;DHT22;2752;49.992;8.422;2023-05-10T02:34:21;13.30;99.90
5459;DHT22;2752;49.992;8.422;2023-05-10T02:36:50;13.30;99.90
5459;DHT22;2752;49.992;8.422;2023-05-10T02:39:19;13.30;99.90
5459;DHT22;2752;49.992;8.422;2023-05-10T02:41:48;13.30;99.90
5459;DHT22;2752;49.992;8.422;2023-05-10T02:44:18;13.30;99.90
5459;DHT22;2752;49.992;8.422;2023-05-10T02:46:45;13.30;99.90
5459;DHT22;2752;49.992;8.422;2023-05-10T02:49:13;13.30;99.90
5459;DHT22;2752;49.992;8.422;2023-05-10T02:51:43;13.30;99.90
5459;DHT22;2752;49.992;8.422;2023-05-10T02:54:18;13.30;99.90
5459;DHT22;2752;49.992;8.422;2023-05-10T02:56:49;13.50;99.90
5459;DHT22;2752;49.992;8.422;2023-05-10T02:59:16;13.20;99.90
5459;DHT22;2752;49.992;8.422;2023-05-10T03:01:43;13.20;99.90
5459;DHT22;2752;49.992;8.422;2023-05-10T03:04:10;13.20;99.90
5459;DHT22;2752;49.992;8.422;2023-05-10T03:06:37;13.20;99.90
5459;DHT22;2752;49.992;8.422;2023-05-10T03:09:03;13.10;99.90
5459;DHT22;2752;49.992;8.422;2023-05-10T03:11:43;13.20;99.90
5459;DHT22;2752;49.992;8.422;2023-05-10T03:14:21;13.20;99.90
5459;DHT22;2752;49.992;8.422;2023-05-10T03:16:57;13.30;99.90
5459;DHT22;2752;49.992;8.422;2023-05-10T03:19:30;13.20;99.90
5459;DHT22;2752;49.992;8.422;2023-05-10T03:21:59;13.30;99.90
5459;DHT22;2752;49.992;8.422;2023-05-10T03:24:30;13.20;99.90
5459;DHT22;2752;49.992;8.422;2023-05-10T03:27:00;13.30;99.90
5459;DHT22;2752;49.992;8.422;2023-05-10T03:29:29;13.30;99.90
5459;DHT22;2752;49.992;8.422;2023-05-10T03:31:57;13.30;99.90
5459;DHT22;2752;49.992;8.422;2023-05-10T03:34:24;13.30;99.90
5459;DHT22;2752;49.992;8.422;2023-05-10T03:36:51;13.30;99.90
5459;DHT22;2752;49.992;8.422;2023-05-10T03:39:18;13.30;99.90
5459;DHT22;2752;49.992;8.422;2023-05-10T03:41:46;13.30;99.90
5459;DHT22;2752;49.992;8.422;2023-05-10T03:44:14;13.30;99.90
5459;DHT22;2752;49.992;8.422;2023-05-10T03:46:41;13.30;99.90
5459;DHT22;2752;49.992;8.422;2023-05-10T03:49:08;13.40;99.90
5459;DHT22;2752;49.992;8.422;2023-05-10T03:51:34;13.40;99.90
5459;DHT22;2752;49.992;8.422;2023-05-10T03:54:01;13.40;99.90
5459;DHT22;2752;49.992;8.422;2023-05-10T03:56:28;13.40;99.90
5459;DHT22;2752;49.992;8.422;2023-05-10T03:58:55;13.40;99.90
5459;DHT22;2752;49.992;8.422;2023-05-10T04:01:23;13.40;99.90
5459;DHT22;2752;49.992;8.422;2023-05-10T04:03:50;13.40;99.90
5459;DHT22;2752;49.992;8.422;2023-05-10T04:06:16;13.40;99.90
5459;DHT22;2752;49.992;8.422;2023-05-10T04:08:43;13.40;99.90
5459;DHT22;2752;49.992;8.422;2023-05-10T04:11:11;13.40;99.90
5459;DHT22;2752;49.992;8.422;2023-05-10T04:13:39;13.50;99.90
5459;DHT22;2752;49.992;8.422;2023-05-10T04:16:06;13.50;99.90
5459;DHT22;2752;49.992;8.422;2023-05-10T04:18:34;13.50;99.90
5459;DHT22;2752;49.992;8.422;2023-05-10T04:21:01;13.50;99.90
5459;DHT22;2752;49.992;8.422;2023-05-10T04:23:28;13.50;99.90
5459;DHT22;2752;49.992;8.422;2023-05-10T04:25:59;13.50;99.90
5459;DHT22;2752;49.992;8.422;2023-05-10T04:28:26;13.60;99.90
5459;DHT22;2752;49.992;8.422;2023-05-10T04:30:52;13.70;99.90
5459;DHT22;2752;49.992;8.422;2023-05-10T04:33:19;13.70;97.30
5459;DHT22;2752;49.992;8.422;2023-05-10T04:35:47;13.80;96.10
5459;DHT22;2752;49.992;8.422;2023-05-10T04:38:14;13.80;94.00
5459;DHT22;2752;49.992;8.422;2023-05-10T04:40:40;13.90;91.00
5459;DHT22;2752;49.992;8.422;2023-05-10T04:43:07;13.80;91.40
5459;DHT22;2752;49.992;8.422;2023-05-10T04:45:33;13.80;91.60
5459;DHT22;2752;49.992;8.422;2023-05-10T04:48:00;13.90;90.40
5459;DHT22;2752;49.992;8.422;2023-05-10T04:50:27;13.80;90.40
5459;DHT22;2752;49.992;8.422;2023-05-10T04:52:55;13.90;88.60
5459;DHT22;2752;49.992;8.422;2023-05-10T04:55:21;13.90;90.00
5459;DHT22;2752;49.992;8.422;2023-05-10T04:57:48;13.90;90.00
5459;DHT22;2752;49.992;8.422;2023-05-10T05:00:15;13.90;89.40
5459;DHT22;2752;49.992;8.422;2023-05-10T05:02:42;13.80;89.10
5459;DHT22;2752;49.992;8.422;2023-05-10T05:05:10;13.90;87.00
5459;DHT22;2752;49.992;8.422;2023-05-10T05:07:37;13.90;86.30
5459;DHT22;2752;49.992;8.422;2023-05-10T05:10:07;14.00;84.20
5459;DHT22;2752;49.992;8.422;2023-05-10T05:12:33;13.90;83.30
5459;DHT22;2752;49.992;8.422;2023-05-10T05:15:00;14.00;85.70
5459;DHT22;2752;49.992;8.422;2023-05-10T05:17:27;14.00;84.40
5459;DHT22;2752;49.992;8.422;2023-05-10T05:19:54;14.00;83.40
5459;DHT22;2752;49.992;8.422;2023-05-10T05:22:21;13.90;82.50
5459;DHT22;2752;49.992;8.422;2023-05-10T05:24:52;14.00;85.40
5459;DHT22;2752;49.992;8.422;2023-05-10T05:27:20;14.00;84.00
5459;DHT22;2752;49.992;8.422;2023-05-10T05:29:49;13.90;86.10
5459;DHT22;2752;49.992;8.422;2023-05-10T05:32:16;13.90;88.10
5459;DHT22;2752;49.992;8.422;2023-05-10T05:34:44;13.90;89.30
5459;DHT22;2752;49.992;8.422;2023-05-10T05:37:13;13.90;91.20
5459;DHT22;2752;49.992;8.422;2023-05-10T05:39:40;13.90;90.40
5459;DHT22;2752;49.992;8.422;2023-05-10T05:42:13;13.90;91.30
5459;DHT22;2752;49.992;8.422;2023-05-10T05:44:41;14.00;88.10
5459;DHT22;2752;49.992;8.422;2023-05-10T05:47:08;14.10;85.10
5459;DHT22;2752;49.992;8.422;2023-05-10T05:49:35;14.00;81.90
5459;DHT22;2752;49.992;8.422;2023-05-10T05:52:02;14.10;85.10
5459;DHT22;2752;49.992;8.422;2023-05-10T05:54:29;14.10;84.00
5459;DHT22;2752;49.992;8.422;2023-05-10T05:56:57;14.10;83.20
5459;DHT22;2752;49.992;8.422;2023-05-10T05:59:24;14.10;80.90
5459;DHT22;2752;49.992;8.422;2023-05-10T06:01:52;14.20;78.50
5459;DHT22;2752;49.992;8.422;2023-05-10T06:04:19;14.30;75.90
5459;DHT22;2752;49.992;8.422;2023-05-10T06:06:45;14.30;71.40
5459;DHT22;2752;49.992;8.422;2023-05-10T06:11:39;14.50;66.10
5459;DHT22;2752;49.992;8.422;2023-05-10T06:14:06;14.50;66.10
5459;DHT22;2752;49.992;8.422;2023-05-10T06:16:33;14.50;67.40
5459;DHT22;2752;49.992;8.422;2023-05-10T06:19:01;14.50;67.00
5459;DHT22;2752;49.992;8.422;2023-05-10T06:21:28;14.60;65.80
5459;DHT22;2752;49.992;8.422;2023-05-10T06:23:55;14.60;68.70
5459;DHT22;2752;49.992;8.422;2023-05-10T06:26:22;14.70;65.20
5459;DHT22;2752;49.992;8.422;2023-05-10T06:28:48;14.60;65.40
5459;DHT22;2752;49.992;8.422;2023-05-10T06:31:15;14.70;69.70
5459;DHT22;2752;49.992;8.422;2023-05-10T06:33:41;14.70;65.50
5459;DHT22;2752;49.992;8.422;2023-05-10T06:36:09;14.80;70.30
5459;DHT22;2752;49.992;8.422;2023-05-10T06:38:36;14.80;71.20
5459;DHT22;2752;49.992;8.422;2023-05-10T06:41:03;14.90;73.90
5459;DHT22;2752;49.992;8.422;2023-05-10T06:43:30;15.00;72.40
5459;DHT22;2752;49.992;8.422;2023-05-10T06:45:57;15.10;71.50
5459;DHT22;2752;49.992;8.422;2023-05-10T06:48:23;15.10;69.70
5459;DHT22;2752;49.992;8.422;2023-05-10T06:50:50;15.20;70.60
5459;DHT22;2752;49.992;8.422;2023-05-10T06:53:18;15.20;69.20
5459;DHT22;2752;49.992;8.422;2023-05-10T06:55:45;15.30;71.40
5459;DHT22;2752;49.992;8.422;2023-05-10T06:58:11;15.30;70.90
5459;DHT22;2752;49.992;8.422;2023-05-10T07:00:38;15.20;66.50
5459;DHT22;2752;49.992;8.422;2023-05-10T07:03:05;15.20;67.80
5459;DHT22;2752;49.992;8.422;2023-05-10T07:05:32;15.30;66.30
5459;DHT22;2752;49.992;8.422;2023-05-10T07:07:59;15.30;65.40
5459;DHT22;2752;49.992;8.422;2023-05-10T07:10:27;15.30;64.40
5459;DHT22;2752;49.992;8.422;2023-05-10T07:12:54;15.40;66.60
5459;DHT22;2752;49.992;8.422;2023-05-10T07:15:21;15.40;65.10
5459;DHT22;2752;49.992;8.422;2023-05-10T07:17:48;15.40;65.10
5459;DHT22;2752;49.992;8.422;2023-05-10T07:20:14;15.50;64.10
5459;DHT22;2752;49.992;8.422;2023-05-10T07:22:41;15.50;64.30
5459;DHT22;2752;49.992;8.422;2023-05-10T07:25:08;15.50;62.10
5459;DHT22;2752;49.992;8.422;2023-05-10T07:27:36;15.60;59.20
5459;DHT22;2752;49.992;8.422;2023-05-10T07:30:03;15.70;58.00
5459;DHT22;2752;49.992;8.422;2023-05-10T07:32:30;15.70;56.70
5459;DHT22;2752;49.992;8.422;2023-05-10T07:34:57;15.80;56.90
5459;DHT22;2752;49.992;8.422;2023-05-10T07:37:23;16.00;54.80
5459;DHT22;2752;49.992;8.422;2023-05-10T07:39:50;16.00;43.00
5459;DHT22;2752;49.992;8.422;2023-05-10T07:42:16;16.00;44.00
5459;DHT22;2752;49.992;8.422;2023-05-10T07:44:44;16.00;40.60
5459;DHT22;2752;49.992;8.422;2023-05-10T07:47:11;16.20;30.00
5459;DHT22;2752;49.992;8.422;2023-05-10T07:49:38;16.20;31.30
5459;DHT22;2752;49.992;8.422;2023-05-10T07:52:04;16.20;31.60
5459;DHT22;2752;49.992;8.422;2023-05-10T07:54:31;16.30;32.40
5459;DHT22;2752;49.992;8.422;2023-05-10T07:56:59;16.40;32.40
5459;DHT22;2752;49.992;8.422;2023-05-10T07:59:26;16.40;38.20
5459;DHT22;2752;49.992;8.422;2023-05-10T08:01:54;16.50;24.80
5459;DHT22;2752;49.992;8.422;2023-05-10T08:04:21;16.60;25.30
5459;DHT22;2752;49.992;8.422;2023-05-10T08:06:48;16.70;17.50
5459;DHT22;2752;49.992;8.422;2023-05-10T08:09:14;16.70;15.00
5459;DHT22;2752;49.992;8.422;2023-05-10T08:11:43;16.80;14.80
5459;DHT22;2752;49.992;8.422;2023-05-10T08:14:10;16.90;13.20
5459;DHT22;2752;49.992;8.422;2023-05-10T08:16:36;16.90;11.10
5459;DHT22;2752;49.992;8.422;2023-05-10T08:19:04;16.80;9.70
5459;DHT22;2752;49.992;8.422;2023-05-10T08:21:31;16.90;6.10
5459;DHT22;2752;49.992;8.422;2023-05-10T08:23:57;16.90;3.40
5459;DHT22;2752;49.992;8.422;2023-05-10T08:26:24;16.90;2.70
5459;DHT22;2752;49.992;8.422;2023-05-10T08:28:51;16.90;4.10
5459;DHT22;2752;49.992;8.422;2023-05-10T08:31:18;16.80;3.80
5459;DHT22;2752;49.992;8.422;2023-05-10T08:33:44;16.80;6.10
5459;DHT22;2752;49.992;8.422;2023-05-10T08:36:12;16.80;6.30
5459;DHT22;2752;49.992;8.422;2023-05-10T08:38:45;16.80;5.70
5459;DHT22;2752;49.992;8.422;2023-05-10T08:41:11;16.80;5.30
5459;DHT22;2752;49.992;8.422;2023-05-10T08:43:38;16.90;1.00
5459;DHT22;2752;49.992;8.422;2023-05-10T08:46:07;17.00;1.00
5459;DHT22;2752;49.992;8.422;2023-05-10T08:48:35;17.00;1.00
5459;DHT22;2752;49.992;8.422;2023-05-10T08:51:04;16.90;1.30
5459;DHT22;2752;49.992;8.422;2023-05-10T08:53:33;17.00;3.90
5459;DHT22;2752;49.992;8.422;2023-05-10T08:56:03;17.10;1.00
5459;DHT22;2752;49.992;8.422;2023-05-10T08:58:30;17.20;1.00
5459;DHT22;2752;49.992;8.422;2023-05-10T09:00:57;17.30;1.00
5459;DHT22;2752;49.992;8.422;2023-05-10T09:03:25;17.50;1.00
5459;DHT22;2752;49.992;8.422;2023-05-10T09:05:52;17.60;1.00
5459;DHT22;2752;49.992;8.422;2023-05-10T09:08:21;17.40;1.00
5459;DHT22;2752;49.992;8.422;2023-05-10T09:10:52;17.40;1.00
5459;DHT22;2752;49.992;8.422;2023-05-10T09:13:19;17.50;1.00
5459;DHT22;2752;49.992;8.422;2023-05-10T09:15:47;17.10;1.00
5459;DHT22;2752;49.992;8.422;2023-05-10T09:18:14;16.90;1.00
5459;DHT22;2752;49.992;8.422;2023-05-10T09:20:41;16.60;1.00
5459;DHT22;2752;49.992;8.422;2023-05-10T09:23:08;16.40;6.00
5459;DHT22;2752;49.992;8.422;2023-05-10T09:25:35;16.30;5.60
5459;DHT22;2752;49.992;8.422;2023-05-10T09:28:07;16.30;11.40
5459;DHT22;2752;49.992;8.422;2023-05-10T09:30:34;16.30;14.70
5459;DHT22;2752;49.992;8.422;2023-05-10T09:33:01;16.30;18.20
5459;DHT22;2752;49.992;8.422;2023-05-10T09:35:30;16.40;21.80
5459;DHT22;2752;49.992;8.422;2023-05-10T09:37:59;16.40;16.00
5459;DHT22;2752;49.992;8.422;2023-05-10T09:40:27;16.50;7.10
5459;DHT22;2752;49.992;8.422;2023-05-10T09:42:55;16.50;7.70
5459;DHT22;2752;49.992;8.422;2023-05-10T09:45:25;16.40;10.90
5459;DHT22;2752;49.992;8.422;2023-05-10T09:47:52;16.20;11.90
5459;DHT22;2752;49.992;8.422;2023-05-10T09:50:19;16.10;10.00
5459;DHT22;2752;49.992;8.422;2023-05-10T09:52:47;16.00;21.00
5459;DHT22;2752;49.992;8.422;2023-05-10T09:55:15;16.00;26.00
5459;DHT22;2752;49.992;8.422;2023-05-10T09:57:41;15.90;22.60
5459;DHT22;2752;49.992;8.422;2023-05-10T10:00:09;15.80;20.80
5459;DHT22;2752;49.992;8.422;2023-05-10T10:02:38;15.80;21.10
5459;DHT22;2752;49.992;8.422;2023-05-10T10:05:06;15.80;15.20
5459;DHT22;2752;49.992;8.422;2023-05-10T10:07:34;15.80;13.00
5459;DHT22;2752;49.992;8.422;2023-05-10T10:10:00;15.90;9.70
5459;DHT22;2752;49.992;8.422;2023-05-10T10:12:27;16.00;11.40
5459;DHT22;2752;49.992;8.422;2023-05-10T10:14:55;16.10;15.40
5459;DHT22;2752;49.992;8.422;2023-05-10T10:17:25;16.40;19.30
5459;DHT22;2752;49.992;8.422;2023-05-10T10:19:55;16.60;11.00
5459;DHT22;2752;49.992;8.422;2023-05-10T10:22:23;16.70;6.10
5459;DHT22;2752;49.992;8.422;2023-05-10T10:24:50;16.90;4.70
5459;DHT22;2752;49.992;8.422;2023-05-10T10:27:23;17.10;1.00
5459;DHT22;2752;49.992;8.422;2023-05-10T10:29:59;17.10;1.00
5459;DHT22;2752;49.992;8.422;2023-05-10T10:32:35;17.20;1.00
5459;DHT22;2752;49.992;8.422;2023-05-10T10:35:06;17.30;1.00
5459;DHT22;2752;49.992;8.422;2023-05-10T10:37:44;17.20;1.00
5459;DHT22;2752;49.992;8.422;2023-05-10T10:40:27;17.10;1.00
5459;DHT22;2752;49.992;8.422;2023-05-10T10:42:54;17.20;1.00
5459;DHT22;2752;49.992;8.422;2023-05-10T10:45:22;17.40;1.00
5459;DHT22;2752;49.992;8.422;2023-05-10T10:47:49;17.50;1.00
5459;DHT22;2752;49.992;8.422;2023-05-10T10:50:21;17.60;1.00
5459;DHT22;2752;49.992;8.422;2023-05-10T10:52:47;17.70;1.00
5459;DHT22;2752;49.992;8.422;2023-05-10T10:55:18;17.70;1.00
5459;DHT22;2752;49.992;8.422;2023-05-10T10:57:49;17.90;1.00
5459;DHT22;2752;49.992;8.422;2023-05-10T11:00:22;18.00;1.00
5459;DHT22;2752;49.992;8.422;2023-05-10T11:02:50;18.10;1.00
5459;DHT22;2752;49.992;8.422;2023-05-10T11:05:40;18.30;1.00
5459;DHT22;2752;49.992;8.422;2023-05-10T11:08:12;18.20;1.00
5459;DHT22;2752;49.992;8.422;2023-05-10T11:10:39;18.10;1.00
5459;DHT22;2752;49.992;8.422;2023-05-10T11:13:07;18.10;1.00
5459;DHT22;2752;49.992;8.422;2023-05-10T11:15:35;18.20;1.00
5459;DHT22;2752;49.992;8.422;2023-05-10T11:18:17;18.40;1.00
5459;DHT22;2752;49.992;8.422;2023-05-10T11:20:50;18.40;1.00
5459;DHT22;2752;49.992;8.422;2023-05-10T11:23:17;18.40;1.00
5459;DHT22;2752;49.992;8.422;2023-05-10T11:25:45;18.40;1.00
5459;DHT22;2752;49.992;8.422;2023-05-10T11:28:12;18.50;1.00
5459;DHT22;2752;49.992;8.422;2023-05-10T11:30:40;18.60;1.00
5459;DHT22;2752;49.992;8.422;2023-05-10T11:33:07;18.70;1.00
5459;DHT22;2752;49.992;8.422;2023-05-10T11:35:37;18.80;1.00
5459;DHT22;2752;49.992;8.422;2023-05-10T11:38:07;18.90;1.00
5459;DHT22;2752;49.992;8.422;2023-05-10T11:40:34;19.00;1.00
5459;DHT22;2752;49.992;8.422;2023-05-10T11:43:00;19.20;1.00
5459;DHT22;2752;49.992;8.422;2023-05-10T11:45:28;19.40;1.00
5459;DHT22;2752;49.992;8.422;2023-05-10T11:47:55;19.50;1.00
5459;DHT22;2752;49.992;8.422;2023-05-10T11:50:21;19.70;1.00
5459;DHT22;2752;49.992;8.422;2023-05-10T11:52:50;19.90;1.00
5459;DHT22;2752;49.992;8.422;2023-05-10T11:55:19;20.10;1.00
5459;DHT22;2752;49.992;8.422;2023-05-10T11:57:46;20.10;1.00
5459;DHT22;2752;49.992;8.422;2023-05-10T12:00:13;20.00;1.00
5459;DHT22;2752;49.992;8.422;2023-05-10T12:02:40;19.90;1.00
5459;DHT22;2752;49.992;8.422;2023-05-10T12:05:07;20.00;1.00
5459;DHT22;2752;49.992;8.422;2023-05-10T12:07:35;20.00;1.00
5459;DHT22;2752;49.992;8.422;2023-05-10T12:10:08;20.00;1.00
5459;DHT22;2752;49.992;8.422;2023-05-10T12:12:38;19.90;1.00
5459;DHT22;2752;49.992;8.422;2023-05-10T12:15:10;20.00;1.00
5459;DHT22;2752;49.992;8.422;2023-05-10T12:17:37;20.00;1.00
5459;DHT22;2752;49.992;8.422;2023-05-10T12:20:15;20.00;1.00
5459;DHT22;2752;49.992;8.422;2023-05-10T12:22:47;20.10;1.00
5459;DHT22;2752;49.992;8.422;2023-05-10T12:25:15;20.40;1.00
5459;DHT22;2752;49.992;8.422;2023-05-10T12:27:49;20.10;1.00
5459;DHT22;2752;49.992;8.422;2023-05-10T12:30:21;20.00;1.00
5459;DHT22;2752;49.992;8.422;2023-05-10T12:32:48;19.70;1.00
5459;DHT22;2752;49.992;8.422;2023-05-10T12:35:15;19.50;1.00
5459;DHT22;2752;49.992;8.422;2023-05-10T12:37:42;19.60;1.00
5459;DHT22;2752;49.992;8.422;2023-05-10T12:40:10;19.50;1.00
5459;DHT22;2752;49.992;8.422;2023-05-10T12:42:38;19.50;1.00
5459;DHT22;2752;49.992;8.422;2023-05-10T12:45:08;19.60;1.00
5459;DHT22;2752;49.992;8.422;2023-05-10T12:47:35;19.60;1.00
5459;DHT22;2752;49.992;8.422;2023-05-10T12:50:02;19.80;1.00
5459;DHT22;2752;49.992;8.422;2023-05-10T12:52:29;19.60;1.00
5459;DHT22;2752;49.992;8.422;2023-05-10T12:54:57;19.60;1.00
5459;DHT22;2752;49.992;8.422;2023-05-10T12:57:24;19.40;1.00
5459;DHT22;2752;49.992;8.422;2023-05-10T12:59:51;19.30;1.00
5459;DHT22;2752;49.992;8.422;2023-05-10T13:02:18;19.10;1.00
5459;DHT22;2752;49.992;8.422;2023-05-10T13:04:46;19.20;1.00
5459;DHT22;2752;49.992;8.422;2023-05-10T13:07:13;19.20;1.00
5459;DHT22;2752;49.992;8.422;2023-05-10T13:09:40;19.20;1.00
5459;DHT22;2752;49.992;8.422;2023-05-10T13:12:06;19.10;1.00
5459;DHT22;2752;49.992;8.422;2023-05-10T13:14:33;19.10;1.00
5459;DHT22;2752;49.992;8.422;2023-05-10T13:17:00;19.20;1.00
5459;DHT22;2752;49.992;8.422;2023-05-10T13:19:28;19.20;1.00
5459;DHT22;2752;49.992;8.422;2023-05-10T13:21:54;19.40;1.00
5459;DHT22;2752;49.992;8.422;2023-05-10T13:24:21;19.20;1.00
5459;DHT22;2752;49.992;8.422;2023-05-10T13:26:47;19.30;1.00
5459;DHT22;2752;49.992;8.422;2023-05-10T13:29:14;19.60;1.00
5459;DHT22;2752;49.992;8.422;2023-05-10T13:31:43;19.80;1.00
5459;DHT22;2752;49.992;8.422;2023-05-10T13:34:10;20.10;1.00
5459;DHT22;2752;49.992;8.422;2023-05-10T13:36:38;20.30;1.00
5459;DHT22;2752;49.992;8.422;2023-05-10T13:39:05;20.00;1.00
5459;DHT22;2752;49.992;8.422;2023-05-10T13:41:31;19.80;1.00
5459;DHT22;2752;49.992;8.422;2023-05-10T13:43:58;19.90;1.00
5459;DHT22;2752;49.992;8.422;2023-05-10T13:46:25;19.80;1.00
5459;DHT22;2752;49.992;8.422;2023-05-10T13:48:51;20.00;1.00
5459;DHT22;2752;49.992;8.422;2023-05-10T13:51:18;20.30;1.00
5459;DHT22;2752;49.992;8.422;2023-05-10T13:53:46;20.40;1.00
5459;DHT22;2752;49.992;8.422;2023-05-10T13:56:13;20.60;1.00
5459;DHT22;2752;49.992;8.422;2023-05-10T13:58:40;20.60;1.00
5459;DHT22;2752;49.992;8.422;2023-05-10T14:01:07;20.60;1.00
5459;DHT22;2752;49.992;8.422;2023-05-10T14:03:33;20.20;1.00
5459;DHT22;2752;49.992;8.422;2023-05-10T14:06:00;20.00;1.00
5459;DHT22;2752;49.992;8.422;2023-05-10T14:08:27;20.00;1.00
5459;DHT22;2752;49.992;8.422;2023-05-10T14:10:55;20.20;1.00
5459;DHT22;2752;49.992;8.422;2023-05-10T14:13:23;20.30;1.00
5459;DHT22;2752;49.992;8.422;2023-05-10T14:15:50;20.60;1.00
5459;DHT22;2752;49.992;8.422;2023-05-10T14:18:16;20.80;1.00
5459;DHT22;2752;49.992;8.422;2023-05-10T14:20:43;20.90;1.00
5459;DHT22;2752;49.992;8.422;2023-05-10T14:23:10;20.90;1.00
5459;DHT22;2752;49.992;8.422;2023-05-10T14:25:37;21.00;1.00
5459;DHT22;2752;49.992;8.422;2023-05-10T14:28:05;21.00;1.00
5459;DHT22;2752;49.992;8.422;2023-05-10T14:30:32;20.80;1.00
5459;DHT22;2752;49.992;8.422;2023-05-10T14:32:59;20.90;1.00
5459;DHT22;2752;49.992;8.422;2023-05-10T14:35:26;20.90;1.00
5459;DHT22;2752;49.992;8.422;2023-05-10T14:37:53;20.80;1.00
5459;DHT22;2752;49.992;8.422;2023-05-10T14:40:20;20.80;1.00
5459;DHT22;2752;49.992;8.422;2023-05-10T14:42:47;20.90;1.00
5459;DHT22;2752;49.992;8.422;2023-05-10T14:45:15;20.90;1.00
5459;DHT22;2752;49.992;8.422;2023-05-10T14:47:41;20.90;1.00
5459;DHT22;2752;49.992;8.422;2023-05-10T14:50:08;20.90;1.00
5459;DHT22;2752;49.992;8.422;2023-05-10T14:52:35;20.90;1.00
5459;DHT22;2752;49.992;8.422;2023-05-10T14:55:02;20.70;1.00
5459;DHT22;2752;49.992;8.422;2023-05-10T14:57:28;20.70;1.00
5459;DHT22;2752;49.992;8.422;2023-05-10T14:59:55;20.50;1.00
5459;DHT22;2752;49.992;8.422;2023-05-10T15:02:23;20.30;1.00
5459;DHT22;2752;49.992;8.422;2023-05-10T15:04:50;20.20;1.00
5459;DHT22;2752;49.992;8.422;2023-05-10T15:07:17;20.30;1.00
5459;DHT22;2752;49.992;8.422;2023-05-10T15:09:43;20.30;1.00
5459;DHT22;2752;49.992;8.422;2023-05-10T15:12:10;20.30;1.00
5459;DHT22;2752;49.992;8.422;2023-05-10T15:14:37;20.30;1.00
5459;DHT22;2752;49.992;8.422;2023-05-10T15:17:06;20.30;1.00
5459;DHT22;2752;49.992;8.422;2023-05-10T15:19:34;20.20;1.00
5459;DHT22;2752;49.992;8.422;2023-05-10T15:22:01;20.10;1.00
5459;DHT22;2752;49.992;8.422;2023-05-10T15:24:28;20.20;1.00
5459;DHT22;2752;49.992;8.422;2023-05-10T15:26:55;20.20;1.00
5459;DHT22;2752;49.992;8.422;2023-05-10T15:29:22;20.40;1.00
5459;DHT22;2752;49.992;8.422;2023-05-10T15:31:50;20.40;1.00
5459;DHT22;2752;49.992;8.422;2023-05-10T15:34:18;20.40;1.00
5459;DHT22;2752;49.992;8.422;2023-05-10T15:36:48;20.40;1.00
5459;DHT22;2752;49.992;8.422;2023-05-10T15:39:15;20.40;1.00
5459;DHT22;2752;49.992;8.422;2023-05-10T15:41:42;20.20;1.00
5459;DHT22;2752;49.992;8.422;2023-05-10T15:44:09;20.20;1.00
5459;DHT22;2752;49.992;8.422;2023-05-10T15:46:36;20.10;1.00
5459;DHT22;2752;49.992;8.422;2023-05-10T15:49:03;20.10;1.00
5459;DHT22;2752;49.992;8.422;2023-05-10T15:51:31;20.10;1.00
5459;DHT22;2752;49.992;8.422;2023-05-10T15:53:59;20.10;1.00
5459;DHT22;2752;49.992;8.422;2023-05-10T15:56:27;20.40;1.00
5459;DHT22;2752;49.992;8.422;2023-05-10T15:58:53;20.50;1.00
5459;DHT22;2752;49.992;8.422;2023-05-10T16:01:20;20.70;1.00
5459;DHT22;2752;49.992;8.422;2023-05-10T16:03:47;20.80;1.00
5459;DHT22;2752;49.992;8.422;2023-05-10T16:06:14;20.60;1.00
5459;DHT22;2752;49.992;8.422;2023-05-10T16:08:41;20.70;1.00
5459;DHT22;2752;49.992;8.422;2023-05-10T16:11:09;20.60;1.00
5459;DHT22;2752;49.992;8.422;2023-05-10T16:13:36;20.40;1.00
5459;DHT22;2752;49.992;8.422;2023-05-10T16:16:03;20.20;1.00
5459;DHT22;2752;49.992;8.422;2023-05-10T16:18:29;20.40;1.00
5459;DHT22;2752;49.992;8.422;2023-05-10T16:20:58;20.40;1.00